Date,TemperatureHighF,TemperatureAvgF,TemperatureLowF,DewpointHighF,DewpointAvgF,DewpointLowF,HumidityHigh,HumidityAvg,HumidityLow,PressureMaxIn,PressureMinIn,WindSpeedMaxMPH,WindSpeedAvgMPH,GustSpeedMaxMPH,PrecipitationSumIn
2013-2-1,59,43,29,37,28,17,82,56,39,30.46,30.22,4,1,11,0.00
2013-2-2,66,54,41,45,39,34,92,61,31,30.37,30.19,3,1,11,0.00
2013-2-3,68,52,34,42,33,30,96,57,25,30.37,30.03,3,0,9,0.00
2013-2-4,70,61,55,56,49,31,90,66,35,30.03,29.82,7,2,17,0.00
2013-2-5,63,58,55,59,56,54,96,93,86,30.04,29.91,2,0,7,0.00
2013-2-6,74,61,54,62,57,53,97,87,50,30.05,29.88,5,1,13,0.01
2013-2-7,78,63,55,60,54,44,94,76,32,30.14,29.82,5,2,16,0.01
2013-2-8,62,52,41,46,35,26,82,57,26,30.30,30.13,4,1,10,0.00
2013-2-9,56,49,46,55,45,36,96,85,63,30.19,29.80,5,2,13,0.00
2013-2-10,67,57,42,62,40,27,96,61,22,30.05,29.69,11,1,21,1.17
2013-2-11,55,50,42,40,34,28,83,56,41,30.22,30.04,4,1,13,0.12
2013-2-12,47,46,40,45,43,38,95,90,77,30.09,29.91,4,1,10,0.35
2013-2-13,56,44,38,39,36,33,93,75,44,30.22,30.08,3,1,16,0.02
2013-2-14,68,50,34,41,37,32,95,66,28,30.17,30.04,3,0,8,0.00
2013-2-15,51,45,32,40,29,20,83,55,31,30.45,30.13,4,1,15,0.00
2013-2-16,55,41,27,32,28,23,87,62,35,30.48,30.24,3,0,6,0.00
2013-2-17,69,54,35,47,34,27,84,51,21,30.24,29.95,8,2,21,0.00
2013-2-18,75,60,50,57,46,32,81,61,31,30.16,29.78,9,3,22,0.00
2013-2-19,59,50,37,34,28,24,72,43,27,30.38,30.16,5,1,13,0.00
2013-2-20,51,43,39,40,37,33,89,79,49,30.23,29.85,7,3,18,0.16
2013-2-21,66,50,40,48,39,31,94,69,28,29.98,29.67,8,2,20,0.14
2013-2-22,48,39,30,37,28,22,83,66,48,30.22,29.97,2,0,9,0.14
2013-2-23,54,40,29,33,28,23,82,62,40,30.17,29.99,2,0,6,0.00
2013-2-24,68,52,32,45,37,29,91,61,33,30.00,29.65,6,2,13,0.00
2013-2-25,58,51,39,50,40,31,86,68,42,29.70,29.49,8,3,22,0.04
2013-2-26,57,45,38,36,33,32,83,65,41,29.96,29.70,4,1,19,0.04
2013-2-27,55,45,36,33,29,20,81,54,27,30.29,29.94,4,1,12,0.00
2013-2-28,57,45,34,31,28,22,81,53,29,30.36,30.23,3,1,14,0.00